sensor_id;sensor_type;location;lat;lon;timestamp;P1;durP1;ratioP1;P2;durP2;ratioP2
2998;SDS011;1509;51.964;7.628;2023-08-30T00:01:06;6.80;;;6.00;;
2998;SDS011;1509;51.964;7.628;2023-08-30T00:03:33;11.30;;;6.70;;
2998;SDS011;1509;51.964;7.628;2023-08-30T00:06:05;10.20;;;7.17;;
2998;SDS011;1509;51.964;7.628;2023-08-30T00:08:32;7.47;;;6.77;;
2998;SDS011;1509;51.964;7.628;2023-08-30T00:10:58;8.67;;;6.57;;
2998;SDS011;1509;51.964;7.628;2023-08-30T00:13:28;8.97;;;6.70;;
2998;SDS011;1509;51.964;7.628;2023-08-30T00:15:54;7.63;;;6.90;;
2998;SDS011;1509;51.964;7.628;2023-08-30T00:18:20;11.07;;;7.27;;
2998;SDS011;1509;51.964;7.628;2023-08-30T00:20:46;7.70;;;6.90;;
2998;SDS011;1509;51.964;7.628;2023-08-30T00:23:15;8.10;;;6.67;;
2998;SDS011;1509;51.964;7.628;2023-08-30T00:25:41;9.07;;;7.40;;
2998;SDS011;1509;51.964;7.628;2023-08-30T00:28:07;8.70;;;7.20;;
2998;SDS011;1509;51.964;7.628;2023-08-30T00:30:33;8.37;;;7.30;;
2998;SDS011;1509;51.964;7.628;2023-08-30T00:32:58;7.70;;;6.77;;
2998;SDS011;1509;51.964;7.628;2023-08-30T00:35:24;8.20;;;7.10;;
2998;SDS011;1509;51.964;7.628;2023-08-30T00:37:49;8.57;;;7.20;;
2998;SDS011;1509;51.964;7.628;2023-08-30T00:40:15;7.33;;;6.63;;
2998;SDS011;1509;51.964;7.628;2023-08-30T00:42:41;8.37;;;7.00;;
2998;SDS011;1509;51.964;7.628;2023-08-30T00:45:07;8.47;;;6.97;;
2998;SDS011;1509;51.964;7.628;2023-08-30T00:47:33;8.70;;;7.17;;
2998;SDS011;1509;51.964;7.628;2023-08-30T00:50:00;8.33;;;7.00;;
2998;SDS011;1509;51.964;7.628;2023-08-30T00:52:26;10.47;;;7.00;;
2998;SDS011;1509;51.964;7.628;2023-08-30T00:54:51;9.37;;;7.47;;
2998;SDS011;1509;51.964;7.628;2023-08-30T00:57:17;7.83;;;6.93;;
2998;SDS011;1509;51.964;7.628;2023-08-30T00:59:43;8.37;;;6.73;;
2998;SDS011;1509;51.964;7.628;2023-08-30T01:02:08;8.63;;;7.17;;
2998;SDS011;1509;51.964;7.628;2023-08-30T01:04:34;12.10;;;8.60;;
2998;SDS011;1509;51.964;7.628;2023-08-30T01:07:00;10.10;;;8.23;;
2998;SDS011;1509;51.964;7.628;2023-08-30T01:09:25;11.70;;;7.90;;
2998;SDS011;1509;51.964;7.628;2023-08-30T01:14:43;9.33;;;7.77;;
2998;SDS011;1509;51.964;7.628;2023-08-30T01:17:17;8.90;;;7.33;;
2998;SDS011;1509;51.964;7.628;2023-08-30T01:19:58;9.30;;;8.30;;
2998;SDS011;1509;51.964;7.628;2023-08-30T01:22:39;12.70;;;8.27;;
2998;SDS011;1509;51.964;7.628;2023-08-30T01:28:16;9.10;;;7.70;;
2998;SDS011;1509;51.964;7.628;2023-08-30T01:30:44;9.17;;;8.27;;
2998;SDS011;1509;51.964;7.628;2023-08-30T01:33:10;8.80;;;7.63;;
2998;SDS011;1509;51.964;7.628;2023-08-30T01:35:38;10.13;;;8.10;;
2998;SDS011;1509;51.964;7.628;2023-08-30T01:38:06;9.60;;;8.20;;
2998;SDS011;1509;51.964;7.628;2023-08-30T01:40:39;9.83;;;8.00;;
2998;SDS011;1509;51.964;7.628;2023-08-30T01:43:07;9.00;;;8.10;;
2998;SDS011;1509;51.964;7.628;2023-08-30T01:45:34;8.90;;;8.07;;
2998;SDS011;1509;51.964;7.628;2023-08-30T01:48:02;10.30;;;8.00;;
2998;SDS011;1509;51.964;7.628;2023-08-30T01:50:28;10.37;;;8.73;;
2998;SDS011;1509;51.964;7.628;2023-08-30T01:52:54;9.83;;;8.83;;
2998;SDS011;1509;51.964;7.628;2023-08-30T01:55:21;10.97;;;9.60;;
2998;SDS011;1509;51.964;7.628;2023-08-30T01:57:48;13.87;;;9.60;;
2998;SDS011;1509;51.964;7.628;2023-08-30T02:00:14;10.37;;;8.57;;
2998;SDS011;1509;51.964;7.628;2023-08-30T02:02:40;10.97;;;9.30;;
2998;SDS011;1509;51.964;7.628;2023-08-30T02:05:06;10.17;;;9.00;;
2998;SDS011;1509;51.964;7.628;2023-08-30T02:10:24;9.57;;;8.30;;
2998;SDS011;1509;51.964;7.628;2023-08-30T02:12:56;12.83;;;10.40;;
2998;SDS011;1509;51.964;7.628;2023-08-30T02:15:24;15.00;;;9.47;;
2998;SDS011;1509;51.964;7.628;2023-08-30T02:17:51;13.60;;;11.30;;
2998;SDS011;1509;51.964;7.628;2023-08-30T02:20:17;14.10;;;12.17;;
2998;SDS011;1509;51.964;7.628;2023-08-30T02:22:47;12.00;;;10.67;;
2998;SDS011;1509;51.964;7.628;2023-08-30T02:25:12;14.20;;;11.97;;
2998;SDS011;1509;51.964;7.628;2023-08-30T02:27:38;16.37;;;11.77;;
2998;SDS011;1509;51.964;7.628;2023-08-30T02:30:03;14.97;;;12.00;;
2998;SDS011;1509;51.964;7.628;2023-08-30T02:32:30;14.40;;;11.13;;
2998;SDS011;1509;51.964;7.628;2023-08-30T02:34:56;12.23;;;10.90;;
2998;SDS011;1509;51.964;7.628;2023-08-30T02:37:22;18.37;;;12.70;;
2998;SDS011;1509;51.964;7.628;2023-08-30T02:39:47;13.93;;;10.83;;
2998;SDS011;1509;51.964;7.628;2023-08-30T02:42:13;15.53;;;13.03;;
2998;SDS011;1509;51.964;7.628;2023-08-30T02:44:41;15.47;;;11.93;;
2998;SDS011;1509;51.964;7.628;2023-08-30T02:47:07;17.20;;;12.23;;
2998;SDS011;1509;51.964;7.628;2023-08-30T02:49:33;16.47;;;12.73;;
2998;SDS011;1509;51.964;7.628;2023-08-30T02:51:58;16.23;;;12.73;;
2998;SDS011;1509;51.964;7.628;2023-08-30T02:54:24;14.57;;;12.97;;
2998;SDS011;1509;51.964;7.628;2023-08-30T02:56:50;16.73;;;11.90;;
2998;SDS011;1509;51.964;7.628;2023-08-30T02:59:15;15.13;;;12.03;;
2998;SDS011;1509;51.964;7.628;2023-08-30T03:01:41;20.27;;;14.20;;
2998;SDS011;1509;51.964;7.628;2023-08-30T03:04:07;17.47;;;13.30;;
2998;SDS011;1509;51.964;7.628;2023-08-30T03:06:33;18.20;;;13.80;;
2998;SDS011;1509;51.964;7.628;2023-08-30T03:08:59;16.77;;;14.10;;
2998;SDS011;1509;51.964;7.628;2023-08-30T03:11:25;17.70;;;13.70;;
2998;SDS011;1509;51.964;7.628;2023-08-30T03:13:53;18.40;;;13.17;;
2998;SDS011;1509;51.964;7.628;2023-08-30T03:16:20;16.60;;;12.83;;
2998;SDS011;1509;51.964;7.628;2023-08-30T03:18:46;16.37;;;12.63;;
2998;SDS011;1509;51.964;7.628;2023-08-30T03:21:12;18.93;;;12.60;;
2998;SDS011;1509;51.964;7.628;2023-08-30T03:23:38;14.90;;;12.43;;
2998;SDS011;1509;51.964;7.628;2023-08-30T03:26:12;17.20;;;13.17;;
2998;SDS011;1509;51.964;7.628;2023-08-30T03:28:39;16.23;;;12.77;;
2998;SDS011;1509;51.964;7.628;2023-08-30T03:31:13;19.37;;;14.23;;
2998;SDS011;1509;51.964;7.628;2023-08-30T03:33:48;23.97;;;13.50;;
2998;SDS011;1509;51.964;7.628;2023-08-30T03:36:14;18.93;;;13.40;;
2998;SDS011;1509;51.964;7.628;2023-08-30T03:38:42;16.93;;;13.40;;
2998;SDS011;1509;51.964;7.628;2023-08-30T03:41:08;18.27;;;14.07;;
2998;SDS011;1509;51.964;7.628;2023-08-30T03:43:35;19.37;;;13.87;;
2998;SDS011;1509;51.964;7.628;2023-08-30T03:46:01;24.07;;;15.00;;
2998;SDS011;1509;51.964;7.628;2023-08-30T03:48:31;21.03;;;15.70;;
2998;SDS011;1509;51.964;7.628;2023-08-30T03:50:57;19.50;;;14.93;;
2998;SDS011;1509;51.964;7.628;2023-08-30T03:53:23;26.37;;;16.00;;
2998;SDS011;1509;51.964;7.628;2023-08-30T03:55:49;20.87;;;16.07;;
2998;SDS011;1509;51.964;7.628;2023-08-30T03:58:15;18.77;;;14.70;;
2998;SDS011;1509;51.964;7.628;2023-08-30T04:00:41;22.40;;;17.27;;
2998;SDS011;1509;51.964;7.628;2023-08-30T04:03:07;21.07;;;16.20;;
2998;SDS011;1509;51.964;7.628;2023-08-30T04:05:34;21.57;;;16.57;;
2998;SDS011;1509;51.964;7.628;2023-08-30T04:08:02;21.27;;;16.30;;
2998;SDS011;1509;51.964;7.628;2023-08-30T04:13:03;19.97;;;16.17;;
2998;SDS011;1509;51.964;7.628;2023-08-30T04:15:32;24.47;;;17.00;;
2998;SDS011;1509;51.964;7.628;2023-08-30T04:17:59;21.70;;;16.60;;
2998;SDS011;1509;51.964;7.628;2023-08-30T04:20:25;27.37;;;17.70;;
2998;SDS011;1509;51.964;7.628;2023-08-30T04:22:51;19.97;;;16.10;;
2998;SDS011;1509;51.964;7.628;2023-08-30T04:25:18;29.47;;;18.60;;
2998;SDS011;1509;51.964;7.628;2023-08-30T04:27:44;20.83;;;16.93;;
2998;SDS011;1509;51.964;7.628;2023-08-30T04:30:09;19.03;;;15.93;;
2998;SDS011;1509;51.964;7.628;2023-08-30T04:32:36;20.37;;;15.37;;
2998;SDS011;1509;51.964;7.628;2023-08-30T04:35:01;21.27;;;16.10;;
2998;SDS011;1509;51.964;7.628;2023-08-30T04:37:29;21.13;;;16.00;;
2998;SDS011;1509;51.964;7.628;2023-08-30T04:39:56;17.80;;;14.43;;
2998;SDS011;1509;51.964;7.628;2023-08-30T04:42:22;21.40;;;15.57;;
2998;SDS011;1509;51.964;7.628;2023-08-30T04:44:47;21.50;;;16.13;;
2998;SDS011;1509;51.964;7.628;2023-08-30T04:47:13;20.63;;;15.53;;
2998;SDS011;1509;51.964;7.628;2023-08-30T04:49:39;21.13;;;16.13;;
2998;SDS011;1509;51.964;7.628;2023-08-30T04:52:05;24.87;;;15.97;;
2998;SDS011;1509;51.964;7.628;2023-08-30T04:54:31;21.20;;;16.03;;
2998;SDS011;1509;51.964;7.628;2023-08-30T04:56:56;22.13;;;16.83;;
2998;SDS011;1509;51.964;7.628;2023-08-30T04:59:22;21.60;;;16.33;;
2998;SDS011;1509;51.964;7.628;2023-08-30T05:01:47;22.77;;;15.70;;
2998;SDS011;1509;51.964;7.628;2023-08-30T05:04:13;18.20;;;14.33;;
2998;SDS011;1509;51.964;7.628;2023-08-30T05:06:39;18.07;;;14.57;;
2998;SDS011;1509;51.964;7.628;2023-08-30T05:09:04;20.30;;;15.73;;
2998;SDS011;1509;51.964;7.628;2023-08-30T05:11:30;21.27;;;15.03;;
2998;SDS011;1509;51.964;7.628;2023-08-30T05:13:55;25.07;;;15.47;;
2998;SDS011;1509;51.964;7.628;2023-08-30T05:16:21;21.23;;;15.37;;
2998;SDS011;1509;51.964;7.628;2023-08-30T05:18:47;21.17;;;15.03;;
2998;SDS011;1509;51.964;7.628;2023-08-30T05:21:14;22.20;;;16.50;;
2998;SDS011;1509;51.964;7.628;2023-08-30T05:23:40;21.97;;;16.67;;
2998;SDS011;1509;51.964;7.628;2023-08-30T05:26:09;24.40;;;15.90;;
2998;SDS011;1509;51.964;7.628;2023-08-30T05:28:37;20.47;;;15.97;;
2998;SDS011;1509;51.964;7.628;2023-08-30T05:31:03;21.27;;;15.87;;
2998;SDS011;1509;51.964;7.628;2023-08-30T05:33:29;22.73;;;16.47;;
2998;SDS011;1509;51.964;7.628;2023-08-30T05:35:54;24.97;;;16.77;;
2998;SDS011;1509;51.964;7.628;2023-08-30T05:38:20;22.63;;;17.47;;
2998;SDS011;1509;51.964;7.628;2023-08-30T05:40:46;22.13;;;17.67;;
2998;SDS011;1509;51.964;7.628;2023-08-30T05:43:11;28.20;;;18.03;;
2998;SDS011;1509;51.964;7.628;2023-08-30T05:45:37;25.60;;;17.17;;
2998;SDS011;1509;51.964;7.628;2023-08-30T05:48:03;30.87;;;19.40;;
2998;SDS011;1509;51.964;7.628;2023-08-30T05:50:29;26.73;;;18.90;;
2998;SDS011;1509;51.964;7.628;2023-08-30T05:52:55;30.00;;;19.50;;
2998;SDS011;1509;51.964;7.628;2023-08-30T05:55:20;27.07;;;19.13;;
2998;SDS011;1509;51.964;7.628;2023-08-30T05:57:46;27.60;;;18.90;;
2998;SDS011;1509;51.964;7.628;2023-08-30T06:00:12;31.40;;;19.50;;
2998;SDS011;1509;51.964;7.628;2023-08-30T06:02:38;24.40;;;18.03;;
2998;SDS011;1509;51.964;7.628;2023-08-30T06:05:05;23.47;;;16.73;;
2998;SDS011;1509;51.964;7.628;2023-08-30T06:07:31;25.77;;;19.37;;
2998;SDS011;1509;51.964;7.628;2023-08-30T06:09:57;26.37;;;18.60;;
2998;SDS011;1509;51.964;7.628;2023-08-30T06:12:22;24.17;;;19.33;;
2998;SDS011;1509;51.964;7.628;2023-08-30T06:14:48;27.17;;;19.67;;
2998;SDS011;1509;51.964;7.628;2023-08-30T06:17:17;25.20;;;18.80;;
2998;SDS011;1509;51.964;7.628;2023-08-30T06:19:46;27.23;;;20.10;;
2998;SDS011;1509;51.964;7.628;2023-08-30T06:22:12;24.57;;;18.50;;
2998;SDS011;1509;51.964;7.628;2023-08-30T06:24:38;25.73;;;20.20;;
2998;SDS011;1509;51.964;7.628;2023-08-30T06:27:04;29.83;;;20.77;;
2998;SDS011;1509;51.964;7.628;2023-08-30T06:29:29;30.23;;;20.00;;
2998;SDS011;1509;51.964;7.628;2023-08-30T06:31:55;28.80;;;20.37;;
2998;SDS011;1509;51.964;7.628;2023-08-30T06:34:21;30.90;;;19.77;;
2998;SDS011;1509;51.964;7.628;2023-08-30T06:36:47;25.20;;;19.63;;
2998;SDS011;1509;51.964;7.628;2023-08-30T06:39:13;22.00;;;18.13;;
2998;SDS011;1509;51.964;7.628;2023-08-30T06:41:38;29.50;;;22.10;;
2998;SDS011;1509;51.964;7.628;2023-08-30T06:44:04;29.20;;;20.63;;
2998;SDS011;1509;51.964;7.628;2023-08-30T06:46:30;30.13;;;20.93;;
2998;SDS011;1509;51.964;7.628;2023-08-30T06:48:55;27.97;;;20.40;;
2998;SDS011;1509;51.964;7.628;2023-08-30T06:51:21;27.00;;;19.40;;
2998;SDS011;1509;51.964;7.628;2023-08-30T06:53:47;27.03;;;20.17;;
2998;SDS011;1509;51.964;7.628;2023-08-30T06:56:12;29.60;;;18.87;;
2998;SDS011;1509;51.964;7.628;2023-08-30T06:58:38;30.53;;;20.77;;
2998;SDS011;1509;51.964;7.628;2023-08-30T07:01:04;27.20;;;19.30;;
2998;SDS011;1509;51.964;7.628;2023-08-30T07:03:29;26.20;;;19.20;;
2998;SDS011;1509;51.964;7.628;2023-08-30T07:05:55;30.57;;;20.70;;
2998;SDS011;1509;51.964;7.628;2023-08-30T07:08:21;31.33;;;20.90;;
2998;SDS011;1509;51.964;7.628;2023-08-30T07:10:46;28.33;;;18.97;;
2998;SDS011;1509;51.964;7.628;2023-08-30T07:13:12;26.77;;;19.27;;
2998;SDS011;1509;51.964;7.628;2023-08-30T07:15:38;32.33;;;20.40;;
2998;SDS011;1509;51.964;7.628;2023-08-30T07:18:05;28.80;;;20.87;;
2998;SDS011;1509;51.964;7.628;2023-08-30T07:20:32;27.60;;;20.30;;
2998;SDS011;1509;51.964;7.628;2023-08-30T07:22:57;26.53;;;19.70;;
2998;SDS011;1509;51.964;7.628;2023-08-30T07:25:23;25.47;;;19.20;;
2998;SDS011;1509;51.964;7.628;2023-08-30T07:27:49;27.57;;;18.57;;
2998;SDS011;1509;51.964;7.628;2023-08-30T07:30:15;25.53;;;17.17;;
2998;SDS011;1509;51.964;7.628;2023-08-30T07:32:40;27.57;;;17.13;;
2998;SDS011;1509;51.964;7.628;2023-08-30T07:35:06;25.10;;;17.00;;
2998;SDS011;1509;51.964;7.628;2023-08-30T07:37:32;22.23;;;17.03;;
2998;SDS011;1509;51.964;7.628;2023-08-30T07:39:59;24.20;;;17.87;;
2998;SDS011;1509;51.964;7.628;2023-08-30T07:42:24;20.07;;;15.70;;
2998;SDS011;1509;51.964;7.628;2023-08-30T07:44:50;23.17;;;17.50;;
2998;SDS011;1509;51.964;7.628;2023-08-30T07:47:16;23.07;;;15.80;;
2998;SDS011;1509;51.964;7.628;2023-08-30T07:49:41;21.20;;;16.73;;
2998;SDS011;1509;51.964;7.628;2023-08-30T07:52:07;19.47;;;15.60;;
2998;SDS011;1509;51.964;7.628;2023-08-30T07:54:36;21.10;;;16.00;;
2998;SDS011;1509;51.964;7.628;2023-08-30T07:57:04;24.83;;;16.40;;
2998;SDS011;1509;51.964;7.628;2023-08-30T07:59:29;20.10;;;16.40;;
2998;SDS011;1509;51.964;7.628;2023-08-30T08:01:57;22.53;;;15.80;;
2998;SDS011;1509;51.964;7.628;2023-08-30T08:04:25;26.80;;;17.30;;
2998;SDS011;1509;51.964;7.628;2023-08-30T08:06:51;24.13;;;16.53;;
2998;SDS011;1509;51.964;7.628;2023-08-30T08:09:17;24.23;;;17.73;;
2998;SDS011;1509;51.964;7.628;2023-08-30T08:11:42;26.67;;;18.10;;
2998;SDS011;1509;51.964;7.628;2023-08-30T08:14:11;20.57;;;15.97;;
2998;SDS011;1509;51.964;7.628;2023-08-30T08:16:37;21.10;;;15.70;;
2998;SDS011;1509;51.964;7.628;2023-08-30T08:19:03;20.83;;;18.00;;
2998;SDS011;1509;51.964;7.628;2023-08-30T08:21:29;19.53;;;16.07;;
2998;SDS011;1509;51.964;7.628;2023-08-30T08:23:55;27.43;;;17.93;;
2998;SDS011;1509;51.964;7.628;2023-08-30T08:26:20;23.33;;;18.87;;
2998;SDS011;1509;51.964;7.628;2023-08-30T08:28:46;27.10;;;17.00;;
2998;SDS011;1509;51.964;7.628;2023-08-30T08:31:11;25.00;;;17.90;;
2998;SDS011;1509;51.964;7.628;2023-08-30T08:33:37;22.00;;;17.23;;
2998;SDS011;1509;51.964;7.628;2023-08-30T08:36:03;23.70;;;18.00;;
2998;SDS011;1509;51.964;7.628;2023-08-30T08:38:28;24.67;;;17.33;;
2998;SDS011;1509;51.964;7.628;2023-08-30T08:41:00;23.40;;;17.93;;
2998;SDS011;1509;51.964;7.628;2023-08-30T08:43:28;20.70;;;16.63;;
2998;SDS011;1509;51.964;7.628;2023-08-30T08:45:57;25.43;;;18.70;;
2998;SDS011;1509;51.964;7.628;2023-08-30T08:48:28;21.90;;;18.47;;
2998;SDS011;1509;51.964;7.628;2023-08-30T08:50:56;22.10;;;18.00;;
2998;SDS011;1509;51.964;7.628;2023-08-30T08:53:22;23.93;;;17.77;;
2998;SDS011;1509;51.964;7.628;2023-08-30T08:55:48;23.73;;;17.80;;
2998;SDS011;1509;51.964;7.628;2023-08-30T08:58:16;24.33;;;18.47;;
2998;SDS011;1509;51.964;7.628;2023-08-30T09:00:42;24.67;;;18.23;;
2998;SDS011;1509;51.964;7.628;2023-08-30T09:03:08;24.80;;;18.33;;
2998;SDS011;1509;51.964;7.628;2023-08-30T09:05:35;28.00;;;19.47;;
2998;SDS011;1509;51.964;7.628;2023-08-30T09:08:04;24.57;;;18.03;;
2998;SDS011;1509;51.964;7.628;2023-08-30T09:10:31;21.93;;;17.20;;
2998;SDS011;1509;51.964;7.628;2023-08-30T09:13:01;24.87;;;17.33;;
2998;SDS011;1509;51.964;7.628;2023-08-30T09:15:33;22.80;;;19.00;;
2998;SDS011;1509;51.964;7.628;2023-08-30T09:18:00;25.93;;;16.97;;
2998;SDS011;1509;51.964;7.628;2023-08-30T09:20:25;24.40;;;16.63;;
2998;SDS011;1509;51.964;7.628;2023-08-30T09:22:51;24.03;;;16.80;;
2998;SDS011;1509;51.964;7.628;2023-08-30T09:25:23;23.67;;;18.17;;
2998;SDS011;1509;51.964;7.628;2023-08-30T09:28:01;24.47;;;18.30;;
2998;SDS011;1509;51.964;7.628;2023-08-30T09:30:28;23.00;;;18.30;;
2998;SDS011;1509;51.964;7.628;2023-08-30T09:33:02;19.77;;;17.43;;
2998;SDS011;1509;51.964;7.628;2023-08-30T09:35:28;23.53;;;17.80;;
2998;SDS011;1509;51.964;7.628;2023-08-30T09:37:54;24.40;;;18.53;;
2998;SDS011;1509;51.964;7.628;2023-08-30T09:40:20;21.60;;;16.20;;
2998;SDS011;1509;51.964;7.628;2023-08-30T09:42:46;24.07;;;17.17;;
2998;SDS011;1509;51.964;7.628;2023-08-30T09:45:18;22.17;;;17.83;;
2998;SDS011;1509;51.964;7.628;2023-08-30T09:47:47;22.70;;;16.80;;
2998;SDS011;1509;51.964;7.628;2023-08-30T09:50:15;21.90;;;16.47;;
2998;SDS011;1509;51.964;7.628;2023-08-30T09:52:43;22.97;;;16.20;;
2998;SDS011;1509;51.964;7.628;2023-08-30T09:55:11;18.97;;;15.10;;
2998;SDS011;1509;51.964;7.628;2023-08-30T09:57:37;22.00;;;16.33;;
2998;SDS011;1509;51.964;7.628;2023-08-30T10:00:05;19.73;;;14.93;;
2998;SDS011;1509;51.964;7.628;2023-08-30T10:02:31;21.53;;;14.10;;
2998;SDS011;1509;51.964;7.628;2023-08-30T10:04:58;16.87;;;13.60;;
2998;SDS011;1509;51.964;7.628;2023-08-30T10:07:24;19.00;;;13.20;;
2998;SDS011;1509;51.964;7.628;2023-08-30T10:09:50;20.17;;;14.67;;
2998;SDS011;1509;51.964;7.628;2023-08-30T10:12:22;16.90;;;13.07;;
2998;SDS011;1509;51.964;7.628;2023-08-30T10:14:48;16.50;;;12.63;;
2998;SDS011;1509;51.964;7.628;2023-08-30T10:17:14;13.60;;;12.10;;
2998;SDS011;1509;51.964;7.628;2023-08-30T10:19:43;14.50;;;11.43;;
2998;SDS011;1509;51.964;7.628;2023-08-30T10:22:10;14.60;;;11.53;;
2998;SDS011;1509;51.964;7.628;2023-08-30T10:24:44;14.50;;;11.30;;
2998;SDS011;1509;51.964;7.628;2023-08-30T10:27:13;16.93;;;11.27;;
2998;SDS011;1509;51.964;7.628;2023-08-30T10:29:39;16.90;;;12.57;;
2998;SDS011;1509;51.964;7.628;2023-08-30T10:32:07;14.37;;;11.20;;
2998;SDS011;1509;51.964;7.628;2023-08-30T10:34:33;13.37;;;10.63;;
2998;SDS011;1509;51.964;7.628;2023-08-30T10:37:03;14.10;;;10.43;;
2998;SDS011;1509;51.964;7.628;2023-08-30T10:39:35;11.27;;;10.17;;
2998;SDS011;1509;51.964;7.628;2023-08-30T10:42:11;12.27;;;10.53;;
2998;SDS011;1509;51.964;7.628;2023-08-30T10:44:51;11.97;;;9.43;;
2998;SDS011;1509;51.964;7.628;2023-08-30T10:47:19;10.67;;;8.83;;
2998;SDS011;1509;51.964;7.628;2023-08-30T10:49:53;14.43;;;10.47;;
2998;SDS011;1509;51.964;7.628;2023-08-30T10:52:20;9.70;;;8.70;;
2998;SDS011;1509;51.964;7.628;2023-08-30T10:54:46;12.80;;;9.20;;
2998;SDS011;1509;51.964;7.628;2023-08-30T10:57:15;11.33;;;9.57;;
2998;SDS011;1509;51.964;7.628;2023-08-30T11:02:35;11.90;;;10.60;;
2998;SDS011;1509;51.964;7.628;2023-08-30T11:05:02;13.20;;;11.77;;
2998;SDS011;1509;51.964;7.628;2023-08-30T11:07:31;18.40;;;13.30;;
2998;SDS011;1509;51.964;7.628;2023-08-30T11:09:57;17.93;;;13.63;;
2998;SDS011;1509;51.964;7.628;2023-08-30T11:12:23;22.57;;;13.90;;
2998;SDS011;1509;51.964;7.628;2023-08-30T11:14:51;22.27;;;14.03;;
2998;SDS011;1509;51.964;7.628;2023-08-30T11:17:17;18.43;;;13.90;;
2998;SDS011;1509;51.964;7.628;2023-08-30T11:19:43;21.73;;;15.10;;
2998;SDS011;1509;51.964;7.628;2023-08-30T11:22:09;22.80;;;14.30;;
2998;SDS011;1509;51.964;7.628;2023-08-30T11:24:35;21.03;;;14.93;;
2998;SDS011;1509;51.964;7.628;2023-08-30T11:27:00;16.80;;;13.97;;
2998;SDS011;1509;51.964;7.628;2023-08-30T11:29:26;15.23;;;13.13;;
2998;SDS011;1509;51.964;7.628;2023-08-30T11:31:52;17.70;;;12.80;;
2998;SDS011;1509;51.964;7.628;2023-08-30T11:34:21;15.87;;;11.80;;
2998;SDS011;1509;51.964;7.628;2023-08-30T11:36:47;14.23;;;11.07;;
2998;SDS011;1509;51.964;7.628;2023-08-30T11:39:14;12.27;;;10.63;;
2998;SDS011;1509;51.964;7.628;2023-08-30T11:41:42;15.70;;;11.30;;
2998;SDS011;1509;51.964;7.628;2023-08-30T11:44:08;16.07;;;11.80;;
2998;SDS011;1509;51.964;7.628;2023-08-30T11:46:34;17.17;;;12.70;;
2998;SDS011;1509;51.964;7.628;2023-08-30T11:48:59;15.30;;;12.03;;
2998;SDS011;1509;51.964;7.628;2023-08-30T11:51:25;15.70;;;11.70;;
2998;SDS011;1509;51.964;7.628;2023-08-30T11:53:51;15.40;;;11.83;;
2998;SDS011;1509;51.964;7.628;2023-08-30T11:56:19;17.23;;;13.33;;
2998;SDS011;1509;51.964;7.628;2023-08-30T11:58:45;16.30;;;12.10;;
2998;SDS011;1509;51.964;7.628;2023-08-30T12:01:11;17.47;;;12.80;;
2998;SDS011;1509;51.964;7.628;2023-08-30T12:03:37;16.20;;;12.90;;
2998;SDS011;1509;51.964;7.628;2023-08-30T12:06:08;17.63;;;12.83;;
2998;SDS011;1509;51.964;7.628;2023-08-30T12:08:35;16.87;;;12.47;;
2998;SDS011;1509;51.964;7.628;2023-08-30T12:11:00;18.53;;;14.03;;
2998;SDS011;1509;51.964;7.628;2023-08-30T12:13:27;21.47;;;14.70;;
2998;SDS011;1509;51.964;7.628;2023-08-30T12:15:55;16.47;;;13.93;;
2998;SDS011;1509;51.964;7.628;2023-08-30T12:18:22;17.63;;;13.37;;
2998;SDS011;1509;51.964;7.628;2023-08-30T12:20:56;15.60;;;12.87;;
2998;SDS011;1509;51.964;7.628;2023-08-30T12:23:27;21.77;;;14.60;;
2998;SDS011;1509;51.964;7.628;2023-08-30T12:25:57;19.30;;;14.50;;
2998;SDS011;1509;51.964;7.628;2023-08-30T12:28:29;19.10;;;13.90;;
2998;SDS011;1509;51.964;7.628;2023-08-30T12:30:55;20.63;;;14.93;;
2998;SDS011;1509;51.964;7.628;2023-08-30T12:33:21;20.93;;;16.83;;
2998;SDS011;1509;51.964;7.628;2023-08-30T12:35:47;19.27;;;13.70;;
2998;SDS011;1509;51.964;7.628;2023-08-30T12:38:13;23.80;;;17.07;;
2998;SDS011;1509;51.964;7.628;2023-08-30T12:40:48;20.63;;;15.90;;
2998;SDS011;1509;51.964;7.628;2023-08-30T12:43:18;22.03;;;16.57;;
2998;SDS011;1509;51.964;7.628;2023-08-30T12:45:50;16.90;;;14.67;;
2998;SDS011;1509;51.964;7.628;2023-08-30T12:48:16;20.73;;;15.53;;
2998;SDS011;1509;51.964;7.628;2023-08-30T12:50:45;21.87;;;16.20;;
2998;SDS011;1509;51.964;7.628;2023-08-30T12:53:12;19.53;;;15.30;;
2998;SDS011;1509;51.964;7.628;2023-08-30T12:55:38;18.30;;;14.73;;
2998;SDS011;1509;51.964;7.628;2023-08-30T12:58:05;18.10;;;14.80;;
2998;SDS011;1509;51.964;7.628;2023-08-30T13:00:32;19.17;;;15.30;;
2998;SDS011;1509;51.964;7.628;2023-08-30T13:02:58;22.10;;;16.70;;
2998;SDS011;1509;51.964;7.628;2023-08-30T13:05:24;17.07;;;14.80;;
2998;SDS011;1509;51.964;7.628;2023-08-30T13:07:50;19.83;;;15.67;;
2998;SDS011;1509;51.964;7.628;2023-08-30T13:10:15;23.90;;;14.77;;
2998;SDS011;1509;51.964;7.628;2023-08-30T13:12:42;19.40;;;15.90;;
2998;SDS011;1509;51.964;7.628;2023-08-30T13:15:08;24.07;;;16.40;;
2998;SDS011;1509;51.964;7.628;2023-08-30T13:17:34;20.30;;;16.30;;
2998;SDS011;1509;51.964;7.628;2023-08-30T13:19:59;20.83;;;16.63;;
2998;SDS011;1509;51.964;7.628;2023-08-30T13:22:26;19.57;;;17.00;;
2998;SDS011;1509;51.964;7.628;2023-08-30T13:24:52;24.40;;;18.10;;
2998;SDS011;1509;51.964;7.628;2023-08-30T13:27:18;21.27;;;17.13;;
2998;SDS011;1509;51.964;7.628;2023-08-30T13:29:45;22.80;;;16.60;;
2998;SDS011;1509;51.964;7.628;2023-08-30T13:32:11;21.77;;;17.17;;
2998;SDS011;1509;51.964;7.628;2023-08-30T13:34:36;20.50;;;16.50;;
2998;SDS011;1509;51.964;7.628;2023-08-30T13:37:03;17.83;;;15.20;;
2998;SDS011;1509;51.964;7.628;2023-08-30T13:39:29;18.47;;;15.30;;
2998;SDS011;1509;51.964;7.628;2023-08-30T13:41:55;17.23;;;13.20;;
2998;SDS011;1509;51.964;7.628;2023-08-30T13:44:20;13.93;;;12.27;;
2998;SDS011;1509;51.964;7.628;2023-08-30T13:46:46;17.07;;;13.80;;
2998;SDS011;1509;51.964;7.628;2023-08-30T13:49:13;17.67;;;14.40;;
2998;SDS011;1509;51.964;7.628;2023-08-30T13:51:39;18.57;;;15.10;;
2998;SDS011;1509;51.964;7.628;2023-08-30T13:54:05;16.07;;;13.20;;
2998;SDS011;1509;51.964;7.628;2023-08-30T13:56:30;19.50;;;14.63;;
2998;SDS011;1509;51.964;7.628;2023-08-30T13:58:57;16.80;;;13.50;;
2998;SDS011;1509;51.964;7.628;2023-08-30T14:01:23;19.00;;;16.20;;
2998;SDS011;1509;51.964;7.628;2023-08-30T14:03:48;20.47;;;15.83;;
2998;SDS011;1509;51.964;7.628;2023-08-30T14:06:14;20.20;;;15.07;;
2998;SDS011;1509;51.964;7.628;2023-08-30T14:08:40;24.60;;;16.17;;
2998;SDS011;1509;51.964;7.628;2023-08-30T14:11:05;21.10;;;18.30;;
2998;SDS011;1509;51.964;7.628;2023-08-30T14:13:31;18.37;;;15.50;;
2998;SDS011;1509;51.964;7.628;2023-08-30T14:16:00;21.97;;;16.97;;
2998;SDS011;1509;51.964;7.628;2023-08-30T14:18:28;17.27;;;14.53;;
2998;SDS011;1509;51.964;7.628;2023-08-30T14:20:56;20.77;;;15.83;;
2998;SDS011;1509;51.964;7.628;2023-08-30T14:23:26;19.27;;;16.30;;
2998;SDS011;1509;51.964;7.628;2023-08-30T14:25:59;22.00;;;16.73;;
2998;SDS011;1509;51.964;7.628;2023-08-30T14:28:26;20.93;;;17.07;;
2998;SDS011;1509;51.964;7.628;2023-08-30T14:30:52;22.23;;;17.53;;
2998;SDS011;1509;51.964;7.628;2023-08-30T14:33:18;19.93;;;15.20;;
2998;SDS011;1509;51.964;7.628;2023-08-30T14:35:45;20.87;;;16.40;;
2998;SDS011;1509;51.964;7.628;2023-08-30T14:38:11;19.23;;;15.80;;
2998;SDS011;1509;51.964;7.628;2023-08-30T14:40:36;21.73;;;16.43;;
2998;SDS011;1509;51.964;7.628;2023-08-30T14:43:03;19.70;;;15.40;;
2998;SDS011;1509;51.964;7.628;2023-08-30T14:45:29;20.53;;;15.80;;
2998;SDS011;1509;51.964;7.628;2023-08-30T14:47:55;19.37;;;15.23;;
2998;SDS011;1509;51.964;7.628;2023-08-30T14:50:21;19.97;;;14.97;;
2998;SDS011;1509;51.964;7.628;2023-08-30T14:52:46;19.80;;;15.20;;
2998;SDS011;1509;51.964;7.628;2023-08-30T14:55:12;22.00;;;13.80;;
2998;SDS011;1509;51.964;7.628;2023-08-30T14:57:38;17.37;;;14.90;;
2998;SDS011;1509;51.964;7.628;2023-08-30T15:00:04;17.63;;;13.87;;
2998;SDS011;1509;51.964;7.628;2023-08-30T15:02:30;15.73;;;13.77;;